Time;durP1;ratioP1;P1;durP2;ratioP2;P2;SDS_P1;SDS_P2;PMS_P1;PMS_P2;Temp;Humidity;BMP_temperature;BMP_pressure;BME280_temperature;BME280_humidity;BME280_pressure;Samples;Min_cycle;Max_cycle;Signal;HPM_P1;HPM_P2
2023/08/22 00:00:23;;;;;;;6.45;2.90;;;;;;;;;;5054530;28;20074;-67
2023/08/22 00:02:49;;;;;;;8.32;3.58;;;;;;;;;;5063890;28;20107;-68
2023/08/22 00:05:15;;;;;;;6.57;2.75;;;;;;;;;;5059934;28;20020;-68
2023/08/22 00:07:42;;;;;;;4.50;2.63;;;;;;;;;;5056854;28;20571;-68
2023/08/22 00:10:09;;;;;;;5.95;3.03;;;;;;;;;;5059464;28;20475;-68
2023/08/22 00:12:35;;;;;;;5.57;3.53;;;;;;;;;;5056327;28;20033;-68
2023/08/22 00:15:04;;;;;;;5.55;2.42;;;;;;;;;;5064022;28;20028;-68
2023/08/22 00:17:31;;;;;;;6.25;2.30;;;;;;;;;;5063616;28;20039;-68
2023/08/22 00:19:57;;;;;;;5.85;2.67;;;;;;;;;;5061419;28;20029;-68
2023/08/22 00:22:23;;;;;;;3.55;2.33;;;;;;;;;;5063290;28;20024;-69
2023/08/22 00:24:49;;;;;;;5.15;2.90;;;;;;;;;;5060731;28;20025;-68
2023/08/22 00:27:15;;;;;;;8.23;2.53;;;;;;;;;;5043649;28;20024;-68
2023/08/22 00:29:41;;;;;;;6.05;2.95;;;;;;;;;;5065286;28;20484;-68
2023/08/22 00:32:07;;;;;;;5.93;2.72;;;;;;;;;;5062813;28;20074;-68
2023/08/22 00:34:33;;;;;;;4.75;2.78;;;;;;;;;;5061852;28;20036;-68
2023/08/22 00:37:00;;;;;;;8.63;3.50;;;;;;;;;;5089098;28;20020;-68
2023/08/22 00:39:26;;;;;;;9.63;2.70;;;;;;;;;;5081726;28;20490;-68
2023/08/22 00:41:52;;;;;;;6.40;3.45;;;;;;;;;;5081196;28;20482;-68
2023/08/22 00:44:19;;;;;;;4.63;2.30;;;;;;;;;;5086258;28;20024;-68
2023/08/22 00:46:46;;;;;;;6.15;2.38;;;;;;;;;;5082877;28;20028;-68
2023/08/22 00:49:12;;;;;;;3.65;2.33;;;;;;;;;;5084592;28;20134;-68
2023/08/22 00:51:39;;;;;;;9.10;2.60;;;;;;;;;;5066892;28;20063;-67
2023/08/22 00:54:06;;;;;;;5.25;3.03;;;;;;;;;;5083497;28;20103;-68
2023/08/22 00:56:32;;;;;;;4.53;2.50;;;;;;;;;;5082031;28;20850;-68
2023/08/22 00:58:59;;;;;;;5.85;2.83;;;;;;;;;;5086083;28;20414;-67
2023/08/22 01:01:26;;;;;;;4.93;2.70;;;;;;;;;;5075025;28;20103;-68
2023/08/22 01:03:52;;;;;;;7.88;3.38;;;;;;;;;;5076756;28;20441;-68
2023/08/22 01:06:41;;;;;;;6.47;2.33;;;;;;;;;;5081573;28;20409;-68
2023/08/22 01:09:40;;;;;;;6.45;2.70;;;;;;;;;;5076109;28;20050;-68
2023/08/22 01:12:20;;;;;;;6.05;2.70;;;;;;;;;;5044307;28;20073;-68
2023/08/22 01:14:50;;;;;;;4.15;2.40;;;;;;;;;;5080466;28;20457;-68
2023/08/22 01:17:16;;;;;;;6.22;2.63;;;;;;;;;;5083242;28;20383;-68
2023/08/22 01:19:42;;;;;;;8.23;3.70;;;;;;;;;;5081176;28;20452;-68
2023/08/22 01:22:08;;;;;;;5.35;3.42;;;;;;;;;;5079696;28;20286;-68
2023/08/22 01:24:34;;;;;;;5.13;2.40;;;;;;;;;;5082188;28;20070;-69
2023/08/22 01:27:01;;;;;;;5.18;2.88;;;;;;;;;;5080401;28;20016;-68
2023/08/22 01:29:40;;;;;;;3.67;2.15;;;;;;;;;;5077273;28;20047;-69
2023/08/22 01:32:17;;;;;;;6.60;3.30;;;;;;;;;;5077714;28;20028;-68
2023/08/22 01:34:44;;;;;;;5.20;2.15;;;;;;;;;;5068405;28;20035;-68
2023/08/22 01:37:11;;;;;;;3.97;2.33;;;;;;;;;;5075722;28;20073;-68
2023/08/22 01:39:38;;;;;;;4.25;2.22;;;;;;;;;;5079978;28;20031;-68
2023/08/22 01:42:04;;;;;;;5.88;2.60;;;;;;;;;;5077343;28;20386;-68
2023/08/22 01:44:30;;;;;;;5.35;2.63;;;;;;;;;;5072863;28;20050;-68
2023/08/22 01:46:56;;;;;;;4.00;2.33;;;;;;;;;;5076569;28;20028;-68
2023/08/22 01:49:23;;;;;;;5.18;2.38;;;;;;;;;;5079663;28;20024;-68
2023/08/22 01:51:49;;;;;;;4.03;2.25;;;;;;;;;;5074854;28;20024;-68
2023/08/22 01:54:15;;;;;;;3.80;2.20;;;;;;;;;;5085642;28;20071;-68
2023/08/22 01:56:41;;;;;;;5.10;2.25;;;;;;;;;;5069060;28;20573;-68
2023/08/22 01:59:07;;;;;;;4.10;2.30;;;;;;;;;;5084076;28;20075;-68
2023/08/22 02:01:33;;;;;;;3.53;2.22;;;;;;;;;;5078752;28;20024;-68
2023/08/22 02:04:03;;;;;;;3.70;2.60;;;;;;;;;;5073772;28;20016;-68
2023/08/22 02:06:30;;;;;;;5.80;2.72;;;;;;;;;;5077956;28;20024;-68
2023/08/22 02:08:57;;;;;;;4.47;2.30;;;;;;;;;;5077805;28;20096;-68
2023/08/22 02:11:23;;;;;;;5.40;2.05;;;;;;;;;;5080646;28;20521;-67
2023/08/22 02:13:49;;;;;;;2.63;2.22;;;;;;;;;;5077543;28;20034;-67
2023/08/22 02:16:15;;;;;;;3.75;2.38;;;;;;;;;;5062726;28;20027;-67
2023/08/22 02:18:42;;;;;;;4.22;2.50;;;;;;;;;;5082629;28;20054;-67
2023/08/22 02:21:08;;;;;;;4.78;2.53;;;;;;;;;;5056758;28;20036;-67
2023/08/22 02:23:34;;;;;;;5.45;2.60;;;;;;;;;;5083015;28;20028;-68
2023/08/22 02:26:00;;;;;;;5.68;2.80;;;;;;;;;;5080020;28;20476;-67
2023/08/22 02:28:26;;;;;;;3.97;2.42;;;;;;;;;;5085675;28;20138;-67
2023/08/22 02:30:56;;;;;;;12.25;2.72;;;;;;;;;;5078475;28;20418;-68
2023/08/22 02:33:22;;;;;;;6.50;2.55;;;;;;;;;;5078544;28;20027;-68
2023/08/22 02:35:48;;;;;;;5.03;2.40;;;;;;;;;;5062773;28;20498;-68
2023/08/22 02:38:15;;;;;;;5.07;2.50;;;;;;;;;;5071386;28;20050;-68
2023/08/22 02:40:41;;;;;;;7.72;3.17;;;;;;;;;;5080014;28;20451;-68
2023/08/22 02:43:07;;;;;;;3.60;2.30;;;;;;;;;;5080332;28;20032;-68
2023/08/22 02:45:33;;;;;;;6.13;2.45;;;;;;;;;;5073077;28;20032;-67
2023/08/22 02:47:59;;;;;;;6.03;2.53;;;;;;;;;;5059701;28;20067;-68
2023/08/22 02:50:25;;;;;;;4.63;2.60;;;;;;;;;;5076338;28;20057;-68
2023/08/22 02:52:51;;;;;;;8.75;2.67;;;;;;;;;;5062087;28;20407;-67
2023/08/22 02:55:17;;;;;;;8.20;2.70;;;;;;;;;;5080098;28;20093;-68
2023/08/22 02:57:44;;;;;;;5.57;2.47;;;;;;;;;;5072503;28;20450;-68
2023/08/22 03:00:11;;;;;;;4.72;2.10;;;;;;;;;;5078833;28;20024;-68
2023/08/22 03:02:38;;;;;;;5.25;2.22;;;;;;;;;;5062188;28;20480;-68
2023/08/22 03:05:07;;;;;;;5.97;2.55;;;;;;;;;;5078691;28;20484;-68
2023/08/22 03:07:33;;;;;;;3.92;2.22;;;;;;;;;;5064761;28;20031;-67
2023/08/22 03:09:59;;;;;;;8.35;2.75;;;;;;;;;;5076386;28;20414;-68
2023/08/22 03:12:25;;;;;;;7.88;2.63;;;;;;;;;;5082751;28;20154;-68
2023/08/22 03:14:52;;;;;;;7.82;2.92;;;;;;;;;;5074524;28;20028;-69
2023/08/22 03:17:18;;;;;;;7.10;2.22;;;;;;;;;;5070427;28;20504;-69
2023/08/22 03:19:44;;;;;;;3.15;2.13;;;;;;;;;;5071501;28;20488;-68
2023/08/22 03:22:10;;;;;;;4.95;2.60;;;;;;;;;;5075698;28;20025;-68
2023/08/22 03:24:36;;;;;;;6.40;2.70;;;;;;;;;;5055185;28;20135;-68
2023/08/22 03:27:02;;;;;;;6.28;2.13;;;;;;;;;;5078350;28;20433;-68
2023/08/22 03:29:28;;;;;;;4.85;2.40;;;;;;;;;;5069847;28;20434;-69
2023/08/22 03:31:54;;;;;;;4.78;2.40;;;;;;;;;;5076575;28;20032;-68
2023/08/22 03:34:21;;;;;;;5.10;2.45;;;;;;;;;;5070002;28;20032;-68
2023/08/22 03:36:47;;;;;;;5.30;2.60;;;;;;;;;;5059725;28;20048;-67
2023/08/22 03:39:13;;;;;;;4.30;2.30;;;;;;;;;;5061319;28;20032;-66
2023/08/22 03:41:39;;;;;;;4.32;2.47;;;;;;;;;;5056119;28;20033;-66
2023/08/22 03:44:05;;;;;;;2.97;2.20;;;;;;;;;;5059380;28;20035;-67
2023/08/22 03:46:31;;;;;;;4.68;2.38;;;;;;;;;;5055099;28;20434;-66
2023/08/22 03:48:57;;;;;;;5.82;2.97;;;;;;;;;;5072600;28;20032;-66
2023/08/22 03:51:23;;;;;;;7.80;3.50;;;;;;;;;;5059479;28;20033;-66
2023/08/22 03:53:50;;;;;;;7.85;2.63;;;;;;;;;;5054913;28;20116;-66
2023/08/22 03:56:16;;;;;;;4.18;2.80;;;;;;;;;;5060864;28;20036;-66
2023/08/22 03:58:42;;;;;;;10.05;2.45;;;;;;;;;;5052551;28;20511;-66
2023/08/22 04:01:08;;;;;;;9.00;2.47;;;;;;;;;;5063317;28;20025;-66
2023/08/22 04:03:34;;;;;;;8.00;2.67;;;;;;;;;;5063206;28;20032;-66
2023/08/22 04:06:03;;;;;;;5.93;2.72;;;;;;;;;;5067810;28;20031;-66
2023/08/22 04:08:29;;;;;;;3.78;2.40;;;;;;;;;;5058762;28;20036;-66
2023/08/22 04:10:56;;;;;;;2.92;2.30;;;;;;;;;;5058360;28;20082;-65
2023/08/22 04:13:22;;;;;;;4.03;2.13;;;;;;;;;;5060648;28;20037;-66
2023/08/22 04:15:49;;;;;;;4.63;2.22;;;;;;;;;;5061342;28;20043;-66
2023/08/22 04:18:15;;;;;;;5.03;2.53;;;;;;;;;;5067139;28;20032;-66
2023/08/22 04:20:44;;;;;;;4.78;2.20;;;;;;;;;;5050217;28;20029;-66
2023/08/22 04:23:10;;;;;;;4.40;2.75;;;;;;;;;;5058831;28;20503;-66
2023/08/22 04:25:37;;;;;;;4.57;2.10;;;;;;;;;;5058522;28;20028;-66
2023/08/22 04:28:03;;;;;;;4.82;2.40;;;;;;;;;;5038835;28;20560;-66
2023/08/22 04:30:29;;;;;;;2.33;1.98;;;;;;;;;;5065313;28;20039;-66
2023/08/22 04:32:56;;;;;;;4.28;2.40;;;;;;;;;;5064702;28;20388;-66
2023/08/22 04:35:23;;;;;;;7.47;2.30;;;;;;;;;;5058016;28;20488;-66
2023/08/22 04:37:49;;;;;;;4.75;2.25;;;;;;;;;;5060942;28;20182;-66
2023/08/22 04:40:15;;;;;;;4.38;2.30;;;;;;;;;;5060680;28;20021;-66
2023/08/22 04:42:41;;;;;;;12.48;2.50;;;;;;;;;;5064757;28;20033;-65
2023/08/22 04:45:07;;;;;;;2.58;2.10;;;;;;;;;;5061398;28;20059;-66
2023/08/22 04:47:34;;;;;;;4.22;2.20;;;;;;;;;;5056582;28;20024;-66
2023/08/22 04:50:00;;;;;;;5.07;2.30;;;;;;;;;;5061624;28;20039;-66
2023/08/22 04:52:26;;;;;;;5.82;2.40;;;;;;;;;;5057892;28;20032;-66
2023/08/22 04:54:52;;;;;;;4.28;2.20;;;;;;;;;;5055579;28;20040;-66
2023/08/22 04:57:20;;;;;;;2.97;1.80;;;;;;;;;;5057353;28;20448;-66
2023/08/22 04:59:46;;;;;;;5.50;2.10;;;;;;;;;;5054177;28;20021;-66
2023/08/22 05:02:12;;;;;;;5.07;1.92;;;;;;;;;;5065162;28;20552;-66
2023/08/22 05:04:38;;;;;;;3.90;2.17;;;;;;;;;;5065879;28;20455;-67
2023/08/22 05:07:04;;;;;;;3.35;2.30;;;;;;;;;;5062152;28;20070;-66
2023/08/22 05:09:31;;;;;;;3.60;2.08;;;;;;;;;;5060728;28;20063;-66
2023/08/22 05:11:57;;;;;;;3.58;1.90;;;;;;;;;;5062283;28;20038;-66
2023/08/22 05:14:23;;;;;;;6.10;1.90;;;;;;;;;;5059973;28;20112;-66
2023/08/22 05:16:51;;;;;;;7.47;2.00;;;;;;;;;;5064365;28;20033;-66
2023/08/22 05:19:17;;;;;;;3.80;2.20;;;;;;;;;;5040451;28;20875;-66
2023/08/22 05:21:43;;;;;;;6.05;2.30;;;;;;;;;;5061437;28;20071;-66
2023/08/22 05:24:09;;;;;;;3.20;2.03;;;;;;;;;;5067254;28;20055;-66
2023/08/22 05:26:35;;;;;;;4.32;2.97;;;;;;;;;;5061005;28;20032;-66
2023/08/22 05:29:02;;;;;;;2.15;1.83;;;;;;;;;;5059911;28;20024;-66
2023/08/22 05:31:28;;;;;;;2.35;1.88;;;;;;;;;;5051971;28;20035;-67
2023/08/22 05:33:54;;;;;;;4.88;2.10;;;;;;;;;;5068323;28;20039;-66
2023/08/22 05:36:20;;;;;;;3.03;1.90;;;;;;;;;;5059135;28;20135;-67
2023/08/22 05:38:46;;;;;;;3.00;2.20;;;;;;;;;;5060992;28;20037;-66
2023/08/22 05:41:13;;;;;;;4.13;2.10;;;;;;;;;;5062544;28;20388;-67
2023/08/22 05:43:39;;;;;;;2.97;1.80;;;;;;;;;;5059408;28;20060;-66
2023/08/22 05:46:06;;;;;;;3.38;1.80;;;;;;;;;;5053805;28;20024;-66
2023/08/22 05:48:32;;;;;;;3.28;1.90;;;;;;;;;;5059893;28;20051;-66
2023/08/22 05:50:58;;;;;;;5.22;1.88;;;;;;;;;;5058104;28;20037;-66
2023/08/22 05:53:24;;;;;;;3.00;2.33;;;;;;;;;;5063581;28;20029;-65
2023/08/22 05:55:50;;;;;;;2.67;1.83;;;;;;;;;;5060178;28;20042;-67
2023/08/22 05:58:16;;;;;;;2.97;1.90;;;;;;;;;;5062957;28;20027;-65
2023/08/22 06:00:43;;;;;;;2.13;1.80;;;;;;;;;;5057312;28;20035;-65
2023/08/22 06:03:09;;;;;;;5.68;2.80;;;;;;;;;;5042197;28;20040;-64
2023/08/22 06:05:35;;;;;;;3.80;2.00;;;;;;;;;;5059314;28;20236;-65
2023/08/22 06:08:01;;;;;;;2.95;1.73;;;;;;;;;;5056165;28;20028;-66
2023/08/22 06:10:27;;;;;;;3.40;2.08;;;;;;;;;;5059939;28;20032;-65
2023/08/22 06:12:53;;;;;;;4.05;1.90;;;;;;;;;;5060636;28;20063;-66
2023/08/22 06:15:20;;;;;;;2.53;1.88;;;;;;;;;;5060772;28;20139;-66
2023/08/22 06:17:46;;;;;;;2.28;1.85;;;;;;;;;;5061291;28;20500;-66
2023/08/22 06:20:13;;;;;;;3.92;1.80;;;;;;;;;;5060028;28;20428;-66
2023/08/22 06:22:39;;;;;;;2.90;1.77;;;;;;;;;;5064951;28;20393;-66
2023/08/22 06:25:06;;;;;;;2.50;1.80;;;;;;;;;;5060766;28;20028;-66
2023/08/22 06:27:33;;;;;;;1.85;1.73;;;;;;;;;;5063668;28;20061;-66
2023/08/22 06:30:00;;;;;;;2.28;1.85;;;;;;;;;;5052364;28;20028;-66
2023/08/22 06:32:26;;;;;;;3.85;1.80;;;;;;;;;;5059064;28;20516;-66
2023/08/22 06:34:53;;;;;;;4.22;1.80;;;;;;;;;;5036662;28;20469;-65
2023/08/22 06:37:19;;;;;;;1.98;1.70;;;;;;;;;;5063143;28;20029;-66
2023/08/22 06:39:45;;;;;;;3.55;1.90;;;;;;;;;;5062509;28;20029;-66
2023/08/22 06:42:13;;;;;;;3.85;1.90;;;;;;;;;;5060032;28;20487;-66
2023/08/22 06:44:39;;;;;;;2.53;1.60;;;;;;;;;;5059119;28;20059;-66
2023/08/22 06:47:05;;;;;;;3.05;1.80;;;;;;;;;;5061558;28;20017;-66
2023/08/22 06:49:32;;;;;;;3.88;1.67;;;;;;;;;;5057939;28;20029;-66
2023/08/22 06:51:58;;;;;;;2.92;2.28;;;;;;;;;;5043545;28;20040;-66
2023/08/22 06:54:24;;;;;;;1.80;1.60;;;;;;;;;;5062167;28;20028;-66
2023/08/22 06:56:50;;;;;;;2.28;1.75;;;;;;;;;;5061343;28;20392;-66
2023/08/22 06:59:17;;;;;;;1.85;1.63;;;;;;;;;;5061831;28;20874;-67
2023/08/22 07:01:43;;;;;;;3.60;1.77;;;;;;;;;;5059199;28;21451;-66
2023/08/22 07:04:09;;;;;;;5.50;1.90;;;;;;;;;;5059420;28;20021;-69
2023/08/22 07:06:35;;;;;;;2.97;1.63;;;;;;;;;;5062519;28;20029;-67
2023/08/22 07:09:03;;;;;;;1.75;1.60;;;;;;;;;;5061476;28;20024;-69
2023/08/22 07:11:29;;;;;;;2.47;1.63;;;;;;;;;;5062410;28;20024;-67
2023/08/22 07:13:56;;;;;;;2.88;1.75;;;;;;;;;;5059566;28;20036;-66
2023/08/22 07:16:22;;;;;;;2.75;1.98;;;;;;;;;;5055716;28;20058;-66
2023/08/22 07:18:48;;;;;;;2.38;1.60;;;;;;;;;;5059361;28;20111;-66
2023/08/22 07:21:15;;;;;;;4.45;2.38;;;;;;;;;;5061820;28;20048;-66
2023/08/22 07:23:41;;;;;;;3.05;1.70;;;;;;;;;;5063127;28;20098;-66
2023/08/22 07:26:08;;;;;;;2.47;1.65;;;;;;;;;;5065968;28;20025;-66
2023/08/22 07:28:34;;;;;;;2.20;1.80;;;;;;;;;;5064218;28;20035;-66
2023/08/22 07:31:03;;;;;;;2.55;1.80;;;;;;;;;;5062950;28;20032;-66
2023/08/22 07:33:30;;;;;;;4.63;2.10;;;;;;;;;;5064218;28;20119;-66
2023/08/22 07:35:56;;;;;;;2.90;2.45;;;;;;;;;;5078257;28;20056;-66
2023/08/22 07:38:22;;;;;;;2.28;1.77;;;;;;;;;;5083069;28;20106;-66
2023/08/22 07:40:48;;;;;;;2.47;1.70;;;;;;;;;;5085184;28;20090;-67
2023/08/22 07:43:15;;;;;;;2.67;1.98;;;;;;;;;;5083280;28;20468;-66
2023/08/22 07:45:41;;;;;;;2.08;1.80;;;;;;;;;;5063731;28;20472;-67
2023/08/22 07:48:08;;;;;;;2.28;1.83;;;;;;;;;;5085672;28;20437;-67
2023/08/22 07:50:34;;;;;;;2.42;1.88;;;;;;;;;;5069562;28;20028;-66
2023/08/22 07:53:01;;;;;;;5.40;1.70;;;;;;;;;;5084107;28;20054;-66
2023/08/22 07:55:27;;;;;;;3.30;1.98;;;;;;;;;;5085519;28;20035;-66
2023/08/22 07:57:54;;;;;;;3.97;1.80;;;;;;;;;;5076597;28;20028;-66
2023/08/22 08:00:20;;;;;;;4.78;2.80;;;;;;;;;;5086646;28;20024;-66
2023/08/22 08:02:47;;;;;;;3.17;2.00;;;;;;;;;;5084752;28;20472;-66
2023/08/22 08:05:13;;;;;;;2.22;1.75;;;;;;;;;;5093761;28;20032;-66
2023/08/22 08:07:39;;;;;;;4.20;1.80;;;;;;;;;;5086285;28;20063;-67
2023/08/22 08:10:06;;;;;;;2.55;1.80;;;;;;;;;;5084136;28;20024;-67
2023/08/22 08:12:32;;;;;;;2.17;1.70;;;;;;;;;;5083610;28;20500;-66
2023/08/22 08:14:58;;;;;;;5.35;1.95;;;;;;;;;;5086315;28;20319;-67
2023/08/22 08:17:25;;;;;;;5.20;2.30;;;;;;;;;;5086315;28;20108;-66
2023/08/22 08:19:51;;;;;;;2.28;2.00;;;;;;;;;;5086182;28;20032;-66
2023/08/22 08:22:17;;;;;;;7.03;1.80;;;;;;;;;;5084870;28;20035;-66
2023/08/22 08:24:44;;;;;;;2.35;2.05;;;;;;;;;;5083499;28;20153;-66
2023/08/22 08:27:10;;;;;;;2.10;1.67;;;;;;;;;;5071322;28;20070;-66
2023/08/22 08:29:36;;;;;;;3.03;1.70;;;;;;;;;;5085775;28;20429;-66
2023/08/22 08:32:03;;;;;;;2.22;1.52;;;;;;;;;;5080116;28;20584;-66
2023/08/22 08:34:29;;;;;;;2.15;1.60;;;;;;;;;;5084063;28;20024;-66
2023/08/22 08:36:55;;;;;;;3.25;1.92;;;;;;;;;;5082829;28;20390;-66
2023/08/22 08:39:21;;;;;;;2.78;1.80;;;;;;;;;;5085582;28;20073;-66
2023/08/22 08:42:10;;;;;;;6.20;2.88;;;;;;;;;;5081333;28;20028;-67
2023/08/22 08:44:36;;;;;;;2.03;1.63;;;;;;;;;;5076913;28;20026;-67
2023/08/22 08:47:03;;;;;;;3.75;1.75;;;;;;;;;;5081910;28;20024;-66
2023/08/22 08:49:32;;;;;;;6.07;1.90;;;;;;;;;;5086185;28;20032;-66
2023/08/22 08:52:02;;;;;;;4.20;1.80;;;;;;;;;;5084248;28;20028;-66
2023/08/22 08:54:31;;;;;;;1.98;1.70;;;;;;;;;;5082991;28;20032;-67
2023/08/22 08:56:59;;;;;;;2.95;1.58;;;;;;;;;;5084538;28;20028;-66
2023/08/22 08:59:25;;;;;;;2.22;1.90;;;;;;;;;;5085588;28;20537;-66
2023/08/22 09:01:51;;;;;;;2.42;1.50;;;;;;;;;;5083615;28;20448;-67
2023/08/22 09:04:18;;;;;;;3.00;1.50;;;;;;;;;;5085107;28;20282;-66
2023/08/22 09:06:45;;;;;;;3.45;1.77;;;;;;;;;;5081007;28;20024;-67
2023/08/22 09:09:12;;;;;;;2.70;1.60;;;;;;;;;;5083973;28;20097;-66
2023/08/22 09:11:52;;;;;;;2.20;1.60;;;;;;;;;;5077892;28;20387;-67
2023/08/22 09:14:21;;;;;;;3.88;2.45;;;;;;;;;;5075267;28;20746;-67
2023/08/22 09:16:48;;;;;;;2.72;1.75;;;;;;;;;;5084354;28;20081;-67
2023/08/22 09:19:15;;;;;;;3.83;2.50;;;;;;;;;;5084053;28;20031;-67
2023/08/22 09:21:56;;;;;;;3.70;1.70;;;;;;;;;;5082964;28;20046;-65
2023/08/22 09:24:24;;;;;;;2.13;1.73;;;;;;;;;;5056722;28;20017;-66
2023/08/22 09:26:50;;;;;;;4.15;1.70;;;;;;;;;;5082866;28;20055;-66
2023/08/22 09:29:24;;;;;;;3.30;1.73;;;;;;;;;;5073773;28;20016;-66
2023/08/22 09:31:51;;;;;;;2.95;1.70;;;;;;;;;;5082572;28;20028;-66
2023/08/22 09:34:17;;;;;;;2.08;1.60;;;;;;;;;;5084336;28;20043;-66
2023/08/22 09:36:45;;;;;;;3.70;1.50;;;;;;;;;;5051635;28;20528;-66
2023/08/22 09:39:13;;;;;;;2.90;1.70;;;;;;;;;;5052608;28;20388;-66
2023/08/22 09:41:40;;;;;;;2.38;1.80;;;;;;;;;;5061856;28;20550;-66
2023/08/22 09:44:06;;;;;;;1.40;1.30;;;;;;;;;;5062082;28;20052;-66
2023/08/22 09:46:33;;;;;;;2.33;1.70;;;;;;;;;;5064171;28;20024;-66
2023/08/22 09:49:00;;;;;;;1.85;1.55;;;;;;;;;;5061501;28;20040;-66
2023/08/22 09:51:27;;;;;;;2.45;1.60;;;;;;;;;;5061707;28;20400;-66
2023/08/22 09:53:59;;;;;;;1.75;1.65;;;;;;;;;;5062352;28;20115;-67
2023/08/22 09:56:26;;;;;;;1.70;1.50;;;;;;;;;;5062953;28;20039;-66
2023/08/22 09:58:55;;;;;;;2.67;1.60;;;;;;;;;;5060416;28;20043;-66
2023/08/22 10:01:22;;;;;;;3.00;1.70;;;;;;;;;;5061319;28;20460;-65
2023/08/22 10:03:48;;;;;;;5.03;1.65;;;;;;;;;;5063600;28;20179;-66
2023/08/22 10:06:15;;;;;;;1.52;1.40;;;;;;;;;;5062737;28;20035;-66
2023/08/22 10:08:48;;;;;;;1.50;1.40;;;;;;;;;;5075370;28;20035;-66
2023/08/22 10:11:15;;;;;;;5.50;1.83;;;;;;;;;;5062852;28;20494;-66
2023/08/22 10:13:42;;;;;;;4.22;1.92;;;;;;;;;;5038018;28;20032;-66
2023/08/22 10:16:08;;;;;;;1.58;1.40;;;;;;;;;;5057914;28;20166;-65
2023/08/22 10:18:34;;;;;;;2.17;1.50;;;;;;;;;;5058616;28;20036;-66
2023/08/22 10:21:03;;;;;;;2.42;1.70;;;;;;;;;;5061002;28;20496;-65
2023/08/22 10:23:44;;;;;;;3.22;1.40;;;;;;;;;;5057929;28;20106;-67
2023/08/22 10:26:11;;;;;;;1.70;1.60;;;;;;;;;;5060870;28;20036;-66
2023/08/22 10:28:43;;;;;;;3.03;1.48;;;;;;;;;;5057921;28;20036;-66
2023/08/22 10:31:11;;;;;;;1.85;1.33;;;;;;;;;;5053076;28;20558;-66
2023/08/22 10:33:38;;;;;;;1.77;1.65;;;;;;;;;;5060069;28;20437;-66
2023/08/22 10:36:04;;;;;;;1.20;1.20;;;;;;;;;;5052405;28;20059;-66
2023/08/22 10:38:48;;;;;;;1.30;1.20;;;;;;;;;;5062317;28;20029;-66
2023/08/22 10:41:14;;;;;;;2.17;1.45;;;;;;;;;;5062098;28;20025;-66
2023/08/22 10:43:40;;;;;;;1.35;1.23;;;;;;;;;;5050779;28;20020;-66
2023/08/22 10:46:06;;;;;;;1.38;1.30;;;;;;;;;;5066138;28;20039;-66
2023/08/22 10:48:32;;;;;;;2.22;1.88;;;;;;;;;;5059905;28;20025;-66
2023/08/22 10:51:06;;;;;;;2.25;2.08;;;;;;;;;;5054643;28;20032;-67
2023/08/22 10:53:42;;;;;;;1.63;1.23;;;;;;;;;;5060010;28;20028;-67
2023/08/22 10:56:19;;;;;;;3.95;1.50;;;;;;;;;;5053377;28;20033;-67
2023/08/22 10:58:57;;;;;;;2.13;1.52;;;;;;;;;;5062635;28;20115;-67
2023/08/22 11:01:23;;;;;;;2.13;1.70;;;;;;;;;;5052076;28;20544;-66
2023/08/22 11:03:51;;;;;;;1.50;1.40;;;;;;;;;;5077468;28;20111;-67
2023/08/22 11:06:22;;;;;;;1.73;1.40;;;;;;;;;;5058986;28;20029;-66
2023/08/22 11:08:48;;;;;;;1.85;1.35;;;;;;;;;;5051667;28;20036;-67
2023/08/22 11:11:15;;;;;;;1.58;1.48;;;;;;;;;;5058185;28;20021;-67
2023/08/22 11:13:41;;;;;;;1.42;1.33;;;;;;;;;;5061120;28;20038;-66
2023/08/22 11:16:09;;;;;;;2.17;1.70;;;;;;;;;;5071489;28;20056;-66
2023/08/22 11:18:36;;;;;;;1.52;1.42;;;;;;;;;;5053016;28;20056;-67
2023/08/22 11:21:02;;;;;;;2.33;1.30;;;;;;;;;;5058507;28;20028;-67
2023/08/22 11:23:31;;;;;;;2.53;1.60;;;;;;;;;;5062815;28;20436;-67
2023/08/22 11:25:58;;;;;;;1.80;1.40;;;;;;;;;;5050556;28;20032;-67
2023/08/22 11:28:31;;;;;;;2.25;1.50;;;;;;;;;;5061486;28;20071;-68
2023/08/22 11:30:57;;;;;;;3.65;2.10;;;;;;;;;;5060529;28;20082;-68
2023/08/22 11:33:23;;;;;;;2.17;1.40;;;;;;;;;;5055484;28;20028;-68
2023/08/22 11:35:50;;;;;;;3.80;1.58;;;;;;;;;;5063655;28;20064;-68
2023/08/22 11:38:16;;;;;;;1.60;1.50;;;;;;;;;;5060576;28;20473;-68
2023/08/22 11:40:42;;;;;;;2.00;1.83;;;;;;;;;;5056475;28;20024;-67
2023/08/22 11:43:09;;;;;;;1.67;1.45;;;;;;;;;;5056727;28;20445;-67
2023/08/22 11:45:46;;;;;;;2.08;1.80;;;;;;;;;;5069033;28;20024;-67
2023/08/22 11:48:19;;;;;;;3.55;1.50;;;;;;;;;;5032699;28;20539;-67
2023/08/22 11:50:45;;;;;;;2.55;2.10;;;;;;;;;;5043356;28;20035;-67
2023/08/22 11:53:15;;;;;;;1.92;1.60;;;;;;;;;;5055383;28;20036;-67
2023/08/22 11:55:43;;;;;;;1.98;1.65;;;;;;;;;;5054018;28;20448;-68
2023/08/22 11:58:15;;;;;;;1.60;1.50;;;;;;;;;;5059278;28;20506;-67
2023/08/22 12:00:41;;;;;;;3.03;1.60;;;;;;;;;;5039512;28;20032;-68
2023/08/22 12:03:09;;;;;;;4.40;2.58;;;;;;;;;;5060742;28;20552;-68
2023/08/22 12:05:48;;;;;;;2.53;1.77;;;;;;;;;;5057806;28;20027;-68
2023/08/22 12:08:14;;;;;;;1.80;1.65;;;;;;;;;;5058007;28;20542;-68
2023/08/22 12:10:44;;;;;;;4.50;1.80;;;;;;;;;;5061464;28;20465;-68
2023/08/22 12:13:11;;;;;;;3.92;2.63;;;;;;;;;;5064611;28;20789;-68
2023/08/22 12:15:38;;;;;;;3.63;2.15;;;;;;;;;;5059852;28;20106;-68
2023/08/22 12:18:04;;;;;;;5.53;1.98;;;;;;;;;;5064184;28;20039;-69
2023/08/22 12:20:40;;;;;;;3.65;2.00;;;;;;;;;;5070137;28;20083;-68
2023/08/22 12:23:13;;;;;;;4.10;2.38;;;;;;;;;;5047188;28;20020;-69
2023/08/22 12:25:43;;;;;;;5.47;2.10;;;;;;;;;;5062724;28;20020;-69
2023/08/22 12:28:14;;;;;;;7.05;2.05;;;;;;;;;;5060678;28;20389;-69
2023/08/22 12:30:41;;;;;;;5.28;2.17;;;;;;;;;;5061331;28;20020;-69
2023/08/22 12:33:13;;;;;;;3.25;2.30;;;;;;;;;;5057465;28;20111;-68
2023/08/22 12:35:41;;;;;;;4.97;2.00;;;;;;;;;;5065784;28;20055;-68
2023/08/22 12:38:07;;;;;;;4.55;2.63;;;;;;;;;;5073409;28;20120;-68
2023/08/22 12:40:33;;;;;;;4.28;2.38;;;;;;;;;;5074986;28;20440;-69
2023/08/22 12:43:00;;;;;;;3.88;1.80;;;;;;;;;;5067747;28;20032;-69
2023/08/22 12:45:26;;;;;;;3.00;2.03;;;;;;;;;;5074785;28;20029;-68
2023/08/22 12:47:52;;;;;;;4.78;2.10;;;;;;;;;;5077952;28;20325;-68
2023/08/22 12:50:18;;;;;;;4.80;2.60;;;;;;;;;;5065362;28;20027;-69
2023/08/22 12:52:45;;;;;;;3.67;2.03;;;;;;;;;;5081340;28;20047;-68
2023/08/22 12:55:14;;;;;;;5.35;2.60;;;;;;;;;;5075191;28;20436;-69
2023/08/22 12:57:44;;;;;;;4.47;2.15;;;;;;;;;;5083548;28;20030;-69
2023/08/22 13:00:11;;;;;;;6.38;3.00;;;;;;;;;;5083922;28;20098;-69
2023/08/22 13:02:38;;;;;;;5.20;2.00;;;;;;;;;;5082626;28;20024;-67
2023/08/22 13:05:08;;;;;;;4.68;2.60;;;;;;;;;;5068314;28;20031;-67
2023/08/22 13:07:34;;;;;;;4.55;2.17;;;;;;;;;;5075745;28;20688;-69
2023/08/22 13:10:06;;;;;;;4.40;2.25;;;;;;;;;;5082027;28;20032;-67
2023/08/22 13:12:36;;;;;;;3.92;2.35;;;;;;;;;;5080659;28;20082;-67
2023/08/22 13:15:03;;;;;;;4.47;1.98;;;;;;;;;;5081987;28;20492;-68
2023/08/22 13:17:30;;;;;;;4.30;2.50;;;;;;;;;;5081167;28;20038;-67
2023/08/22 13:19:56;;;;;;;5.72;2.13;;;;;;;;;;5075245;28;20032;-67
2023/08/22 13:22:22;;;;;;;5.07;2.33;;;;;;;;;;5085703;28;20436;-68
2023/08/22 13:24:48;;;;;;;5.35;2.35;;;;;;;;;;5074342;28;20062;-68
2023/08/22 13:27:14;;;;;;;5.15;2.78;;;;;;;;;;5081046;28;20030;-67
2023/08/22 13:29:41;;;;;;;2.90;2.08;;;;;;;;;;5078074;28;20032;-68
2023/08/22 13:32:07;;;;;;;3.50;2.00;;;;;;;;;;5071576;28;20077;-68
2023/08/22 13:34:33;;;;;;;2.42;1.85;;;;;;;;;;5079318;28;20059;-69
2023/08/22 13:37:02;;;;;;;5.97;2.10;;;;;;;;;;5060646;28;20489;-67
2023/08/22 13:39:29;;;;;;;5.43;1.83;;;;;;;;;;5052528;28;20124;-68
2023/08/22 13:41:56;;;;;;;3.85;2.10;;;;;;;;;;5063475;28;20368;-68
2023/08/22 13:44:22;;;;;;;3.78;2.00;;;;;;;;;;5072720;28;20031;-69
2023/08/22 13:46:50;;;;;;;6.32;2.15;;;;;;;;;;5058805;28;20519;-69
2023/08/22 13:49:16;;;;;;;9.32;2.58;;;;;;;;;;5049758;28;20028;-70
2023/08/22 13:51:42;;;;;;;3.53;1.90;;;;;;;;;;5066394;28;20040;-68
2023/08/22 13:54:09;;;;;;;3.22;1.90;;;;;;;;;;5061387;28;20548;-68
2023/08/22 13:56:35;;;;;;;2.20;1.98;;;;;;;;;;5059005;28;20405;-69
2023/08/22 13:59:01;;;;;;;2.65;2.10;;;;;;;;;;5062952;28;20081;-69
2023/08/22 14:01:27;;;;;;;4.03;2.17;;;;;;;;;;5061074;28;20024;-69
2023/08/22 14:03:53;;;;;;;4.85;2.65;;;;;;;;;;5062959;28;20582;-69
2023/08/22 14:06:22;;;;;;;4.47;2.10;;;;;;;;;;5062667;28;20380;-69
2023/08/22 14:08:49;;;;;;;4.22;1.95;;;;;;;;;;5061430;28;20195;-68
2023/08/22 14:11:21;;;;;;;9.48;2.50;;;;;;;;;;5063034;28;20179;-69
2023/08/22 14:13:48;;;;;;;5.88;2.13;;;;;;;;;;5052900;28;20107;-68
2023/08/22 14:16:14;;;;;;;6.10;2.28;;;;;;;;;;5055949;28;20226;-71
2023/08/22 14:18:40;;;;;;;4.22;2.80;;;;;;;;;;5061570;28;20082;-68
2023/08/22 14:21:06;;;;;;;4.10;1.90;;;;;;;;;;5061629;28;20589;-69
2023/08/22 14:23:32;;;;;;;3.58;2.28;;;;;;;;;;5053655;28;20021;-69
2023/08/22 14:25:59;;;;;;;4.93;2.28;;;;;;;;;;5052056;28;20032;-69
2023/08/22 14:28:28;;;;;;;4.20;2.45;;;;;;;;;;5036904;28;20032;-70
2023/08/22 14:30:59;;;;;;;3.58;2.08;;;;;;;;;;5055408;28;20397;-71
2023/08/22 14:33:34;;;;;;;6.47;2.17;;;;;;;;;;5050745;28;20032;-71
2023/08/22 14:36:07;;;;;;;4.47;2.30;;;;;;;;;;5052245;28;20087;-72
2023/08/22 14:38:34;;;;;;;4.93;2.17;;;;;;;;;;5041573;28;20427;-72
2023/08/22 14:41:01;;;;;;;8.20;2.75;;;;;;;;;;5051678;28;20047;-70
2023/08/22 14:43:27;;;;;;;5.40;2.22;;;;;;;;;;5045036;28;20112;-70